createdAt,value
2023-05-01T00:02:16.171Z,101200.06
2023-05-01T00:04:46.653Z,101194.69
2023-05-01T00:07:18.531Z,101189.41
2023-05-01T00:09:49.724Z,101191.06
2023-05-01T00:12:18.484Z,101194.53
2023-05-01T00:14:47.280Z,101184.06
2023-05-01T00:17:17.059Z,101190.19
2023-05-01T00:19:49.176Z,101184.94
2023-05-01T00:22:21.326Z,101189.31
2023-05-01T00:24:51.339Z,101183.19
2023-05-01T00:27:22.703Z,101177.94
2023-05-01T00:29:54.709Z,101185.69
2023-05-01T00:32:33.095Z,101185.59
2023-05-01T00:35:04.924Z,101182.13
2023-05-01T00:37:39.721Z,101181.22
2023-05-01T00:40:09.785Z,101177.66
2023-05-01T00:42:40.068Z,101182.84
2023-05-01T00:45:09.877Z,101181.91
2023-05-01T00:47:38.999Z,101170.50
2023-05-01T00:50:10.518Z,101181.84
2023-05-01T00:52:43.341Z,101180.97
2023-05-01T00:55:14.349Z,101173.91
2023-05-01T00:57:51.004Z,101173.03
2023-05-01T01:00:22.440Z,101173.88
2023-05-01T01:02:53.871Z,101168.56
2023-05-01T01:05:28.343Z,101165.91
2023-05-01T01:08:06.919Z,101165.91
2023-05-01T01:10:44.889Z,101169.41
2023-05-01T01:13:21.605Z,101171.97
2023-05-01T01:15:58.247Z,101167.63
2023-05-01T01:18:36.086Z,101164.97
2023-05-01T01:21:13.828Z,101164.03
2023-05-01T01:24:10.268Z,101171.94
2023-05-01T01:27:26.140Z,101157.91
2023-05-01T01:30:30.862Z,101165.63
2023-05-01T01:33:31.214Z,101162.09
2023-05-01T01:36:10.567Z,101154.16
2023-05-01T01:38:45.307Z,101152.44
2023-05-01T01:41:21.128Z,101154.97
2023-05-01T01:43:59.614Z,101158.47
2023-05-01T01:46:31.121Z,101149.84
2023-05-01T01:49:03.583Z,101149.75
2023-05-01T01:51:39.581Z,101155.72
2023-05-01T01:54:11.378Z,101152.97
2023-05-01T01:56:45.417Z,101152.94
2023-05-01T01:59:15.994Z,101160.81
2023-05-01T02:01:46.933Z,101157.28
2023-05-01T02:04:20.623Z,101146.84
2023-05-01T02:06:54.434Z,101139.88
2023-05-01T02:09:24.896Z,101142.50
2023-05-01T02:11:58.985Z,101136.44
2023-05-01T02:14:29.728Z,101133.81
2023-05-01T02:16:58.966Z,101131.09
2023-05-01T02:19:28.741Z,101136.19
2023-05-01T02:22:03.139Z,101137.00
2023-05-01T02:24:35.456Z,101140.53
2023-05-01T02:27:15.811Z,101129.34
2023-05-01T02:29:46.949Z,101125.91
2023-05-01T02:32:15.731Z,101128.47
2023-05-01T02:34:46.466Z,101127.59
2023-05-01T02:37:17.312Z,101119.78
2023-05-01T02:39:48.862Z,101114.53
2023-05-01T02:42:20.289Z,101115.25
2023-05-01T02:45:02.641Z,101111.78
2023-05-01T02:47:36.218Z,101103.94
2023-05-01T02:50:07.524Z,101098.66
2023-05-01T02:52:41.755Z,101099.53
2023-05-01T02:55:29.333Z,101094.22
2023-05-01T02:58:01.617Z,101095.19
2023-05-01T03:00:30.453Z,101087.31
2023-05-01T03:03:02.977Z,101084.72
2023-05-01T03:05:34.675Z,101089.06
2023-05-01T03:08:05.356Z,101078.59
2023-05-01T03:10:39.227Z,101079.53
2023-05-01T03:13:08.828Z,101077.78
2023-05-01T03:15:38.498Z,101078.72
2023-05-01T03:18:07.773Z,101082.16
2023-05-01T03:20:37.698Z,101084.84
2023-05-01T03:23:09.233Z,101075.13
2023-05-01T03:25:40.342Z,101077.66
2023-05-01T03:28:09.548Z,101065.41
2023-05-01T03:30:38.332Z,101069.78
2023-05-01T03:33:07.363Z,101068.94
2023-05-01T03:35:36.525Z,101061.22
2023-05-01T03:38:10.920Z,101061.28
2023-05-01T03:41:15.578Z,101056.00
2023-05-01T03:44:11.583Z,101065.59
2023-05-01T03:46:44.474Z,101053.31
2023-05-01T03:49:20.936Z,101058.50
2023-05-01T03:51:50.686Z,101057.53
2023-05-01T03:54:24.594Z,101058.53
2023-05-01T03:57:01.697Z,101046.38
2023-05-01T03:59:30.526Z,101058.69
2023-05-01T04:02:00.534Z,101046.50
2023-05-01T04:04:32.400Z,101048.31
2023-05-01T04:07:01.801Z,101047.50
2023-05-01T04:09:32.238Z,101051.06
2023-05-01T04:12:02.336Z,101048.53
2023-05-01T04:14:31.310Z,101048.53
2023-05-01T04:17:00.958Z,101044.25
2023-05-01T04:19:34.851Z,101043.47
2023-05-01T04:22:05.629Z,101037.38
2023-05-01T04:24:37.665Z,101040.06
2023-05-01T04:27:06.907Z,101036.63
2023-05-01T04:29:35.795Z,101032.28
2023-05-01T04:32:04.865Z,101041.09
2023-05-01T04:34:33.740Z,101035.03
2023-05-01T04:37:03.737Z,101033.34
2023-05-01T04:39:32.568Z,101029.03
2023-05-01T04:42:03.679Z,101023.81
2023-05-01T04:44:34.226Z,101026.50
2023-05-01T04:47:04.168Z,101018.72
2023-05-01T04:49:33.137Z,101024.06
2023-05-01T04:52:02.031Z,101028.47
2023-05-01T04:54:41.014Z,101025.91
2023-05-01T04:57:11.449Z,101012.84
2023-05-01T04:59:40.869Z,101020.69
2023-05-01T05:02:10.028Z,101022.53
2023-05-01T05:04:38.763Z,101021.72
2023-05-01T05:07:09.203Z,101022.63
2023-05-01T05:10:00.790Z,101022.69
2023-05-01T05:12:31.199Z,101028.00
2023-05-01T05:15:00.237Z,101029.75
2023-05-01T05:17:31.163Z,101027.13
2023-05-01T05:19:59.947Z,101027.13
2023-05-01T05:22:28.731Z,101024.50
2023-05-01T05:25:21.467Z,101026.25
2023-05-01T05:27:51.682Z,101024.50
2023-05-01T05:30:20.722Z,101030.63
2023-05-01T05:32:49.569Z,101020.94
2023-05-01T05:35:18.562Z,101016.53
2023-05-01T05:37:47.580Z,101006.84
2023-05-01T05:40:16.782Z,101006.00
2023-05-01T05:42:56.667Z,101007.75
2023-05-01T05:45:29.230Z,101010.31
2023-05-01T05:47:58.640Z,101007.66
2023-05-01T05:50:29.386Z,101006.75
2023-05-01T05:52:58.173Z,101001.47
2023-05-01T05:55:28.208Z,101003.19
2023-05-01T05:58:04.515Z,101005.72
2023-05-01T06:00:33.823Z,101007.44
2023-05-01T06:03:07.104Z,101005.63
2023-05-01T06:05:37.607Z,101009.09
2023-05-01T06:08:06.640Z,101004.66
2023-05-01T06:10:36.728Z,101002.00
2023-05-01T06:13:13.889Z,101001.91
2023-05-01T06:15:46.905Z,101006.22
2023-05-01T06:18:16.055Z,101003.47
2023-05-01T06:20:45.147Z,101001.66
2023-05-01T06:23:13.946Z,100998.88
2023-05-01T06:25:54.052Z,101003.19
2023-05-01T06:28:24.316Z,101001.28
2023-05-01T06:30:53.199Z,100999.38
2023-05-01T06:33:22.707Z,101001.84
2023-05-01T06:36:03.170Z,101003.44
2023-05-01T06:38:34.345Z,101012.03
2023-05-01T06:41:05.366Z,101004.78
2023-05-01T06:43:35.553Z,101001.03
2023-05-01T06:46:04.458Z,101001.66
2023-05-01T06:48:33.348Z,101009.31
2023-05-01T06:51:04.780Z,100997.56
2023-05-01T06:53:33.557Z,100996.38
2023-05-01T06:56:02.351Z,100999.69
2023-05-01T06:58:31.119Z,100994.16
2023-05-01T07:01:01.498Z,100995.72
2023-05-01T07:03:30.490Z,100991.16
2023-05-01T07:05:59.369Z,100986.72
2023-05-01T07:08:28.573Z,100987.53
2023-05-01T07:10:57.499Z,100986.53
2023-05-01T07:13:26.437Z,100978.41
2023-05-01T07:15:55.353Z,100978.13
2023-05-01T07:18:25.730Z,100972.50
2023-05-01T07:20:54.673Z,100979.34
2023-05-01T07:23:25.809Z,100974.72
2023-05-01T07:25:55.259Z,100979.00
2023-05-01T07:28:24.024Z,100976.13
2023-05-01T07:30:52.823Z,100973.97
2023-05-01T07:33:21.710Z,100967.25
2023-05-01T07:35:51.975Z,100972.00
2023-05-01T07:38:20.859Z,100980.09
2023-05-01T07:40:49.777Z,100972.28
2023-05-01T07:43:18.594Z,100979.34
2023-05-01T07:45:58.321Z,100976.78
2023-05-01T07:48:27.596Z,100976.25
2023-05-01T07:50:58.111Z,100968.63
2023-05-01T07:53:26.852Z,100977.41
2023-05-01T07:55:55.576Z,100982.75
2023-05-01T07:58:24.382Z,100968.50
2023-05-01T08:00:53.184Z,100969.25
2023-05-01T08:03:22.223Z,100966.63
2023-05-01T08:05:51.284Z,100970.22
2023-05-01T08:08:21.382Z,100960.59
2023-05-01T08:10:50.181Z,100952.81
2023-05-01T08:13:19.126Z,100949.34
2023-05-01T08:15:48.754Z,100959.03
2023-05-01T08:18:21.120Z,100957.97
2023-05-01T08:20:50.748Z,100958.94
2023-05-01T08:23:20.942Z,100964.25
2023-05-01T08:25:51.666Z,100965.13
2023-05-01T08:28:21.844Z,100958.03
2023-05-01T08:30:50.710Z,100956.94
2023-05-01T08:33:20.076Z,100956.59
2023-05-01T08:35:49.527Z,100958.34
2023-05-01T08:38:18.485Z,100956.59
2023-05-01T08:40:53.872Z,100957.56
2023-05-01T08:43:24.293Z,100957.47
2023-05-01T08:45:55.934Z,100954.66
2023-05-01T08:48:27.112Z,100957.00
2023-05-01T08:50:59.364Z,100946.09
2023-05-01T08:53:29.490Z,100948.66
2023-05-01T08:56:01.564Z,100946.97
2023-05-01T08:58:32.285Z,100950.38
2023-05-01T09:01:03.096Z,100944.16
2023-05-01T09:03:34.074Z,100936.00
2023-05-01T09:06:04.975Z,100933.13
2023-05-01T09:08:33.775Z,100941.56
2023-05-01T09:11:06.323Z,100932.53
2023-05-01T09:13:35.428Z,100932.41
2023-05-01T09:16:05.817Z,100930.47
2023-05-01T09:18:36.637Z,100930.38
2023-05-01T09:21:05.533Z,100918.78
2023-05-01T09:23:36.046Z,100916.91
2023-05-01T09:26:08.038Z,100917.78
2023-05-01T09:28:44.458Z,100907.75
2023-05-01T09:31:23.707Z,100909.09
2023-05-01T09:33:55.230Z,100901.75
2023-05-01T09:36:25.359Z,100898.97
2023-05-01T09:38:54.265Z,100900.53
2023-05-01T09:41:25.141Z,100898.53
2023-05-01T09:43:55.051Z,100896.63
2023-05-01T09:46:25.536Z,100886.81
2023-05-01T09:48:56.207Z,100878.63
2023-05-01T09:51:28.071Z,100874.00
2023-05-01T09:53:58.547Z,100871.13
2023-05-01T09:56:30.281Z,100870.47
2023-05-01T09:59:01.627Z,100865.88
2023-05-01T10:01:40.664Z,100864.25
2023-05-01T10:04:10.165Z,100864.81
2023-05-01T10:06:39.608Z,100861.22
2023-05-01T10:09:16.684Z,100853.78
2023-05-01T10:11:55.770Z,100851.19
2023-05-01T10:14:26.931Z,100857.63
2023-05-01T10:16:57.800Z,100850.78
2023-05-01T10:19:27.197Z,100845.94
2023-05-01T10:21:56.290Z,100782.97
2023-05-01T10:24:25.414Z,100845.56
2023-05-01T10:26:56.627Z,100853.56
2023-05-01T10:29:28.946Z,100842.81
2023-05-01T10:31:57.977Z,100835.47
2023-05-01T10:34:28.633Z,100837.88
2023-05-01T10:37:01.820Z,100828.81
2023-05-01T10:39:34.636Z,100824.06
2023-05-01T10:42:11.204Z,100818.88
2023-05-01T10:44:41.166Z,100833.59
2023-05-01T10:47:47.549Z,100823.09
2023-05-01T10:50:17.486Z,100816.03
2023-05-01T10:53:18.230Z,100805.53
2023-05-01T10:55:48.464Z,100805.25
2023-05-01T10:58:58.028Z,100787.91
2023-05-01T11:01:34.365Z,100793.84
2023-05-01T11:04:05.366Z,100721.03
2023-05-01T11:06:34.327Z,100782.47
2023-05-01T11:09:04.630Z,100771.47
2023-05-01T11:11:50.467Z,100772.63
2023-05-01T11:14:20.753Z,100770.75
2023-05-01T11:16:49.811Z,100761.19
2023-05-01T11:19:50.282Z,100759.34
2023-05-01T11:22:20.458Z,100761.56
2023-05-01T11:24:49.964Z,100749.63
2023-05-01T11:27:18.783Z,100748.63
2023-05-01T11:29:50.876Z,100746.88
2023-05-01T11:32:28.114Z,100742.97
2023-05-01T11:34:57.609Z,100733.44
2023-05-01T11:37:42.100Z,100739.72
2023-05-01T11:40:22.122Z,100729.16
2023-05-01T11:42:51.989Z,100722.97
2023-05-01T11:45:22.431Z,100723.69
2023-05-01T11:47:51.400Z,100708.88
2023-05-01T11:50:21.938Z,100711.44
2023-05-01T11:52:53.764Z,100705.19
2023-05-01T11:55:31.784Z,100706.94
2023-05-01T11:58:00.914Z,100704.78
2023-05-01T12:00:33.867Z,100699.41
2023-05-01T12:03:04.396Z,100691.34
2023-05-01T12:05:35.624Z,100696.34
2023-05-01T12:08:17.114Z,100693.97
2023-05-01T12:10:47.431Z,100685.13
2023-05-01T12:13:17.296Z,100688.91
2023-05-01T12:15:49.468Z,100630.94
2023-05-01T12:18:19.064Z,100670.09
2023-05-01T12:20:50.324Z,100667.03
2023-05-01T12:23:19.992Z,100663.66
2023-05-01T12:25:49.066Z,100652.84
2023-05-01T12:28:20.531Z,100648.34
2023-05-01T12:30:50.784Z,100645.69
2023-05-01T12:33:21.942Z,100643.47
2023-05-01T12:35:51.675Z,100641.88
2023-05-01T12:38:24.132Z,100631.50
2023-05-01T12:40:54.944Z,100632.63
2023-05-01T12:43:30.852Z,100621.88
2023-05-01T12:46:01.263Z,100618.56
2023-05-01T12:48:30.855Z,100609.00
2023-05-01T12:50:59.879Z,100607.28
2023-05-01T12:53:29.724Z,100616.56
2023-05-01T12:55:59.653Z,100602.09
2023-05-01T12:58:51.294Z,100609.72
2023-05-01T13:01:28.502Z,100603.50
2023-05-01T13:03:58.072Z,100598.63
2023-05-01T13:06:34.715Z,100591.66
2023-05-01T13:09:11.188Z,100589.75
2023-05-01T13:11:40.634Z,100587.06
2023-05-01T13:14:10.523Z,100584.97
2023-05-01T13:16:47.865Z,100589.84
2023-05-01T13:19:28.936Z,100571.13
2023-05-01T13:21:58.892Z,100568.78
2023-05-01T13:24:39.210Z,100570.06
2023-05-01T13:27:09.514Z,100564.81
2023-05-01T13:29:39.050Z,100561.69
2023-05-01T13:32:13.468Z,100552.94
2023-05-01T13:34:44.686Z,100555.97
2023-05-01T13:37:34.078Z,100555.56
2023-05-01T13:40:03.579Z,100556.31
2023-05-01T13:42:33.705Z,100557.09
2023-05-01T13:45:06.426Z,100543.50
2023-05-01T13:47:40.592Z,100536.47
2023-05-01T13:50:11.962Z,100530.75
2023-05-01T13:52:44.257Z,100523.31
2023-05-01T13:55:13.632Z,100530.44
2023-05-01T13:57:43.424Z,100528.06
2023-05-01T14:00:19.306Z,100482.91
2023-05-01T14:02:53.053Z,100516.69
2023-05-01T14:05:27.376Z,100518.00
2023-05-01T14:07:58.232Z,100506.88
2023-05-01T14:10:29.646Z,100504.06
2023-05-01T14:12:59.335Z,100507.59
2023-05-01T14:15:28.864Z,100502.72
2023-05-01T14:18:01.158Z,100495.16
2023-05-01T14:20:30.152Z,100506.47
2023-05-01T14:22:58.980Z,100494.34
2023-05-01T14:25:34.602Z,100486.25
2023-05-01T14:28:07.856Z,100480.06
2023-05-01T14:30:38.632Z,100480.09
2023-05-01T14:33:09.999Z,100483.25
2023-05-01T14:35:44.908Z,100485.38
2023-05-01T14:38:15.191Z,100472.97
2023-05-01T14:40:44.665Z,100470.78
2023-05-01T14:43:17.083Z,100468.41
2023-05-01T14:45:49.104Z,100480.59
2023-05-01T14:48:25.094Z,100464.56
2023-05-01T14:50:55.306Z,100465.03
2023-05-01T14:53:24.322Z,100474.63
2023-05-01T14:55:54.121Z,100465.66
2023-05-01T14:58:23.000Z,100462.22
2023-05-01T15:00:52.360Z,100463.47
2023-05-01T15:03:23.378Z,100455.34
2023-05-01T15:05:52.413Z,100462.44
2023-05-01T15:08:21.292Z,100454.25
2023-05-01T15:10:50.100Z,100461.25
2023-05-01T15:13:19.700Z,100466.72
2023-05-01T15:15:48.553Z,100467.31
2023-05-01T15:18:17.391Z,100451.56
2023-05-01T15:20:47.699Z,100451.03
2023-05-01T15:23:16.705Z,100444.69
2023-05-01T15:25:45.490Z,100444.09
2023-05-01T15:28:14.903Z,100442.91
2023-05-01T15:30:46.863Z,100430.75
2023-05-01T15:33:18.818Z,100445.44
2023-05-01T15:35:51.194Z,100441.75
2023-05-01T15:38:25.539Z,100448.50
2023-05-01T15:40:57.574Z,100434.75
2023-05-01T15:43:27.583Z,100428.44
2023-05-01T15:46:05.613Z,100430.94
2023-05-01T15:48:35.664Z,100432.53
2023-05-01T15:51:07.402Z,100433.25
2023-05-01T15:53:36.519Z,100365.78
2023-05-01T15:56:06.620Z,100424.59
2023-05-01T15:58:36.138Z,100420.06
2023-05-01T16:01:05.176Z,100431.69
2023-05-01T16:03:35.132Z,100425.16
2023-05-01T16:06:08.762Z,100421.13
2023-05-01T16:08:39.152Z,100416.09
2023-05-01T16:11:11.190Z,100415.72
2023-05-01T16:13:49.017Z,100416.38
2023-05-01T16:16:24.823Z,100406.38
2023-05-01T16:18:56.843Z,100408.78
2023-05-01T16:21:29.329Z,100396.88
2023-05-01T16:24:02.949Z,100395.78
2023-05-01T16:26:35.394Z,100397.19
2023-05-01T16:29:09.217Z,100394.09
2023-05-01T16:31:48.031Z,100390.13
2023-05-01T16:34:18.668Z,100394.00
2023-05-01T16:36:52.467Z,100394.19
2023-05-01T16:39:23.182Z,100396.81
2023-05-01T16:41:53.541Z,100383.13
2023-05-01T16:44:24.050Z,100391.66
2023-05-01T16:46:55.130Z,100388.66
2023-05-01T16:49:24.977Z,100393.91
2023-05-01T16:51:57.283Z,100394.84
2023-05-01T16:54:31.896Z,100393.22
2023-05-01T16:57:01.495Z,100390.81
2023-05-01T16:59:30.549Z,100392.97
2023-05-01T17:01:59.445Z,100398.63
2023-05-01T17:04:28.574Z,100391.78
2023-05-01T17:06:58.974Z,100393.88
2023-05-01T17:09:28.011Z,100385.31
2023-05-01T17:11:59.051Z,100389.19
2023-05-01T17:14:28.878Z,100384.31
2023-05-01T17:16:59.161Z,100388.38
2023-05-01T17:19:28.030Z,100385.31
2023-05-01T17:21:58.969Z,100380.41
2023-05-01T17:24:28.016Z,100386.97
2023-05-01T17:26:57.374Z,100381.09
2023-05-01T17:29:26.854Z,100375.03
2023-05-01T17:31:55.723Z,100378.03
2023-05-01T17:34:24.561Z,100368.34
2023-05-01T17:36:54.799Z,100372.91
2023-05-01T17:39:28.213Z,100376.97
2023-05-01T17:41:57.196Z,100373.91
2023-05-01T17:44:25.936Z,100369.03
2023-05-01T17:46:54.710Z,100372.91
2023-05-01T17:49:24.126Z,100370.78
2023-05-01T17:51:52.961Z,100370.22
2023-05-01T17:54:22.014Z,100365.13
2023-05-01T17:56:52.252Z,100364.34
2023-05-01T17:59:21.106Z,100359.31
2023-05-01T18:01:50.632Z,100368.75
2023-05-01T18:04:19.704Z,100367.34
2023-05-01T18:06:48.645Z,100360.34
2023-05-01T18:09:17.459Z,100361.13
2023-05-01T18:11:46.557Z,100361.75
2023-05-01T18:14:16.811Z,100359.16
2023-05-01T18:16:45.865Z,100358.84
2023-05-01T18:19:14.861Z,100356.84
2023-05-01T18:21:43.742Z,100351.09
2023-05-01T18:24:12.502Z,100353.69
2023-05-01T18:26:41.290Z,100359.91
2023-05-01T18:29:10.137Z,100358.84
2023-05-01T18:31:40.350Z,100362.50
2023-05-01T18:34:10.234Z,100362.84
2023-05-01T18:36:39.094Z,100315.47
2023-05-01T18:39:07.885Z,100362.41
2023-05-01T18:41:36.691Z,100375.28
2023-05-01T18:44:05.542Z,100370.28
2023-05-01T18:46:34.684Z,100363.22
2023-05-01T18:49:04.952Z,100365.16
2023-05-01T18:51:33.779Z,100356.50
2023-05-01T18:54:04.842Z,100362.06
2023-05-01T18:56:33.797Z,100361.19
2023-05-01T18:59:03.270Z,100361.25
2023-05-01T19:01:32.290Z,100367.03
2023-05-01T19:04:01.264Z,100360.19
2023-05-01T19:06:31.644Z,100360.06
2023-05-01T19:09:01.208Z,100362.56
2023-05-01T19:11:31.862Z,100367.75
2023-05-01T19:14:00.847Z,100366.88
2023-05-01T19:16:29.593Z,100366.16
2023-05-01T19:18:58.372Z,100360.91
2023-05-01T19:21:27.973Z,100354.91
2023-05-01T19:23:58.234Z,100357.66
2023-05-01T19:26:29.209Z,100354.28
2023-05-01T19:28:57.959Z,100356.38
2023-05-01T19:31:26.939Z,100355.84
2023-05-01T19:33:57.562Z,100352.53
2023-05-01T19:36:26.829Z,100352.47
2023-05-01T19:38:56.945Z,100355.19
2023-05-01T19:41:26.513Z,100354.25
2023-05-01T19:43:55.207Z,100275.53
2023-05-01T19:46:24.315Z,100353.63
2023-05-01T19:48:53.188Z,100347.69
2023-05-01T19:51:21.978Z,100355.16
2023-05-01T19:53:50.742Z,100352.56
2023-05-01T19:56:20.885Z,100355.91
2023-05-01T19:58:49.603Z,100281.03
2023-05-01T20:01:18.427Z,100347.47
2023-05-01T20:03:47.692Z,100347.63
2023-05-01T20:06:16.718Z,100348.72
2023-05-01T20:08:45.546Z,100347.09
2023-05-01T20:11:14.413Z,100342.69
2023-05-01T20:13:45.502Z,100340.19
2023-05-01T20:16:14.275Z,100346.72
2023-05-01T20:18:43.099Z,100346.81
2023-05-01T20:21:11.980Z,100336.97
2023-05-01T20:23:41.285Z,100347.59
2023-05-01T20:26:10.167Z,100342.47
2023-05-01T20:28:38.999Z,100341.78
2023-05-01T20:31:09.549Z,100340.22
2023-05-01T20:33:38.901Z,100341.50
2023-05-01T20:36:08.285Z,100340.56
2023-05-01T20:38:43.055Z,100343.94
2023-05-01T20:41:12.206Z,100341.44
2023-05-01T20:43:41.285Z,100343.53
2023-05-01T20:46:11.459Z,100328.06
2023-05-01T20:48:40.285Z,100333.78
2023-05-01T20:51:09.209Z,100341.19
2023-05-01T20:53:38.063Z,100345.94
2023-05-01T20:56:07.144Z,100342.56
2023-05-01T20:58:37.637Z,100346.09
2023-05-01T21:01:06.741Z,100342.50
2023-05-01T21:03:37.019Z,100340.78
2023-05-01T21:06:06.813Z,100341.75
2023-05-01T21:08:35.918Z,100334.84
2023-05-01T21:11:04.779Z,100335.78
2023-05-01T21:13:34.203Z,100336.66
2023-05-01T21:16:05.595Z,100334.00
2023-05-01T21:18:37.621Z,100337.53
2023-05-01T21:21:06.530Z,100342.84
2023-05-01T21:23:35.229Z,100341.16
2023-05-01T21:26:04.437Z,100340.50
2023-05-01T21:28:33.316Z,100345.09
2023-05-01T21:31:02.150Z,100343.41
2023-05-01T21:33:31.017Z,100350.47
2023-05-01T21:36:02.509Z,100356.59
2023-05-01T21:38:41.052Z,100361.88
2023-05-01T21:41:12.941Z,100359.38
2023-05-01T21:43:44.296Z,100362.31
2023-05-01T21:46:18.171Z,100368.44
2023-05-01T21:48:53.944Z,100314.91
2023-05-01T21:51:28.768Z,100365.41
2023-05-01T21:53:57.810Z,100369.25
2023-05-01T21:56:26.764Z,100364.06
2023-05-01T21:59:02.911Z,100371.34
2023-05-01T22:01:31.980Z,100370.53
2023-05-01T22:04:02.544Z,100374.31
2023-05-01T22:06:35.094Z,100374.44
2023-05-01T22:09:04.094Z,100373.50
2023-05-01T22:11:33.202Z,100369.56
2023-05-01T22:14:02.301Z,100371.31
2023-05-01T22:16:31.151Z,100376.56
2023-05-01T22:19:00.459Z,100374.84
2023-05-01T22:21:31.803Z,100378.59
2023-05-01T22:24:02.962Z,100384.00
2023-05-01T22:26:31.781Z,100385.41
2023-05-01T22:29:00.532Z,100379.91
2023-05-01T22:31:29.268Z,100376.25
2023-05-01T22:33:58.126Z,100392.31
2023-05-01T22:36:26.821Z,100390.75
2023-05-01T22:38:55.517Z,100394.47
2023-05-01T22:41:25.640Z,100391.88
2023-05-01T22:43:54.340Z,100392.41
2023-05-01T22:46:23.335Z,100388.31
2023-05-01T22:48:52.030Z,100387.06
2023-05-01T22:51:20.732Z,100393.47
2023-05-01T22:53:49.695Z,100401.06
2023-05-01T22:56:18.514Z,100403.91
2023-05-01T22:58:48.685Z,100413.16
2023-05-01T23:01:17.396Z,100418.09
2023-05-01T23:03:46.222Z,100415.75
2023-05-01T23:06:15.079Z,100408.28
2023-05-01T23:08:43.890Z,100417.47
2023-05-01T23:11:13.270Z,100423.81
2023-05-01T23:13:47.305Z,100411.78
2023-05-01T23:16:18.164Z,100407.59
2023-05-01T23:18:46.939Z,100403.38
2023-05-01T23:21:19.289Z,100404.53
2023-05-01T23:23:48.781Z,100396.78
2023-05-01T23:26:26.267Z,100403.81
2023-05-01T23:28:55.288Z,100396.88
2023-05-01T23:31:29.234Z,100397.88
2023-05-01T23:33:58.056Z,100409.22
2023-05-01T23:36:28.192Z,100394.25
2023-05-01T23:38:56.896Z,100397.88
2023-05-01T23:41:26.135Z,100393.63
2023-05-01T23:43:54.927Z,100392.91
2023-05-01T23:46:25.162Z,100394.78
2023-05-01T23:48:53.952Z,100392.25
2023-05-01T23:51:22.739Z,100386.16
2023-05-01T23:53:51.787Z,100389.94
2023-05-01T23:56:22.118Z,100391.97
2023-05-01T23:58:50.869Z,100392.13
